< < Back
Terminal Aerodrome Forecast


Current Version              Previous Versions:   1  2  3  4  5  6  7  8  9  

Terminal Aerodrome Forecast

514
FTUS42 KFFC 310540
TAFFTY
TAF
KFTY 310540Z 3106/0106 00000KT P6SM FEW250
     FM311400 VRB03KT P6SM FEW050
     FM311800 VRB04KT P6SM SCT060
     FM010000 00000KT P6SM SCT100=

Latest METAR

283
SAUS70 KWBC 010100 RRK
MTRFTY
METAR KFTY 010053Z 14003KT 10SM FEW080 27/16 A2992 RMK AO2 SLP121
T02720161


USA.gov is the U.S. government's official web portal to all federal, state and local government web resources and services.